Airfield :
LOGIN :

Register | Disclaimer

   EN    FR    IT 

 










Legend :    VFR   Marginal VFR   IFR   Intensive IFR   Very Intensive IFR
Visi :
Ceiling :
>= 8 km
>= 3000ft
5 to 8 km
1000 to 3000 ft
1500m to 5 km
500 to 1000 ft
800 to 1500m
200 to 500 ft
< 800m
< 200 ft
Symbols :   Thunderstorms  Fog  Heavy snow  Heavy precipitations  Wind > 20 kt
SIGMETs :     Misc.  Thunderstorms  Icing  Turbulence  Mountain Waves  Volcanic Ashes






- Airport Elevation : 291 ft
- IATA code : ORY


LFPO - Paris-Orly

CURRENT METAR :
  • 062130Z AUTO 33011KT CAVOK 20/13 Q1025 NOSIG

EXPIRED METARs :
  • 062100Z AUTO 33008KT 310V010 CAVOK 21/13 Q1025 NOSIG
  • 062030Z AUTO 33009KT 300V360 CAVOK 21/12 Q1025 NOSIG
  • 062000Z AUTO 32008KT 300V360 CAVOK 22/12 Q1025 NOSIG
  • 061930Z AUTO 32010KT CAVOK 22/12 Q1025 NOSIG
  • 061900Z AUTO 32009KT 300V360 CAVOK 23/11 Q1024 NOSIG

TAF TAF LFPO
Valid from the 06 at 18:00 until the 08 at 00:00 UTC


061700Z 0618/0724 30008KT CAVOK
TEMPO 0618/0621 32010G20KT
TEMPO 0710/0721 36012G23KT
ATIS : +33 1 49 75 65 80



MET'MAP, your aeronautical weather chart ! - Copyright ORBIFLY December 2007 - Disclaimer

ORBIFLY MET'MAP TEAM :

Programming & Development : Alexandra Zaïnal
Original concept : Baudouin d'Aumeries
Technical & hardware support : Manuel Goepfert
Assistance : Marc-Olivier Méhu




SOURCES & CREDITS :

   NOAA